createdAt,value
2023-03-03T00:01:35.919Z,79.80
2023-03-03T00:04:04.352Z,80.87
2023-03-03T00:06:32.778Z,86.40
2023-03-03T00:09:01.165Z,88.07
2023-03-03T00:11:29.590Z,84.10
2023-03-03T00:13:58.697Z,87.10
2023-03-03T00:16:30.666Z,79.33
2023-03-03T00:19:00.052Z,83.83
2023-03-03T00:21:30.337Z,82.03
2023-03-03T00:24:18.760Z,81.67
2023-03-03T00:26:48.047Z,79.37
2023-03-03T00:29:28.710Z,82.37
2023-03-03T00:32:01.925Z,84.10
2023-03-03T00:34:30.644Z,82.87
2023-03-03T00:36:59.710Z,84.33
2023-03-03T00:39:30.452Z,86.13
2023-03-03T00:41:59.808Z,84.47
2023-03-03T00:44:41.210Z,81.37
2023-03-03T00:47:26.167Z,82.77
2023-03-03T00:49:55.100Z,83.90
2023-03-03T00:52:23.845Z,77.97
2023-03-03T00:54:52.308Z,72.30
2023-03-03T00:57:21.031Z,72.23
2023-03-03T00:59:49.584Z,76.57
2023-03-03T01:02:19.642Z,69.90
2023-03-03T01:04:51.654Z,63.03
2023-03-03T01:07:20.162Z,67.23
2023-03-03T01:09:48.571Z,73.33
2023-03-03T01:12:17.667Z,74.43
2023-03-03T01:14:46.337Z,71.23
2023-03-03T01:17:14.801Z,65.80
2023-03-03T01:19:44.597Z,74.83
2023-03-03T01:22:13.024Z,71.73
2023-03-03T01:24:41.474Z,70.00
2023-03-03T01:27:09.922Z,71.13
2023-03-03T01:29:38.358Z,67.73
2023-03-03T01:32:06.956Z,58.90
2023-03-03T01:34:35.701Z,58.07
2023-03-03T01:37:05.516Z,60.00
2023-03-03T01:39:33.946Z,50.70
2023-03-03T01:42:02.420Z,54.63
2023-03-03T01:44:30.868Z,58.30
2023-03-03T01:47:04.015Z,59.07
2023-03-03T01:49:35.282Z,62.03
2023-03-03T01:52:07.309Z,56.80
2023-03-03T01:54:38.065Z,68.07
2023-03-03T01:57:08.294Z,64.97
2023-03-03T01:59:38.116Z,69.43
2023-03-03T02:02:06.950Z,62.13
2023-03-03T02:04:36.355Z,69.23
2023-03-03T02:07:10.796Z,65.13
2023-03-03T02:09:44.019Z,60.87
2023-03-03T02:12:14.418Z,61.20
2023-03-03T02:14:42.894Z,63.03
2023-03-03T02:17:11.639Z,64.17
2023-03-03T02:19:44.775Z,70.83
2023-03-03T02:22:16.906Z,69.77
2023-03-03T02:24:46.962Z,72.47
2023-03-03T02:27:16.761Z,74.43
2023-03-03T02:29:45.172Z,71.63
2023-03-03T02:32:13.690Z,78.17
2023-03-03T02:34:51.562Z,75.03
2023-03-03T02:37:21.364Z,72.00
2023-03-03T02:39:49.834Z,68.63
2023-03-03T02:42:22.469Z,69.03
2023-03-03T02:44:50.929Z,72.63
2023-03-03T02:47:19.376Z,66.20
2023-03-03T02:49:47.803Z,53.53
2023-03-03T02:52:18.715Z,57.63
2023-03-03T02:54:47.456Z,58.17
2023-03-03T02:57:15.908Z,55.20
2023-03-03T02:59:45.717Z,55.50
2023-03-03T03:02:14.153Z,52.03
2023-03-03T03:04:42.703Z,61.80
2023-03-03T03:07:11.813Z,62.70
2023-03-03T03:09:40.289Z,64.67
2023-03-03T03:12:08.718Z,64.37
2023-03-03T03:14:37.306Z,67.77
2023-03-03T03:17:07.094Z,65.03
2023-03-03T03:19:35.575Z,67.90
2023-03-03T03:22:03.999Z,67.77
2023-03-03T03:24:32.409Z,65.90
2023-03-03T03:27:00.862Z,64.90
2023-03-03T03:29:29.311Z,68.87
2023-03-03T03:31:57.832Z,76.83
2023-03-03T03:34:27.703Z,78.37
2023-03-03T03:36:56.180Z,70.73
2023-03-03T03:39:24.691Z,76.73
2023-03-03T03:41:53.109Z,76.77
2023-03-03T03:44:21.975Z,74.33
2023-03-03T03:46:50.442Z,79.13
2023-03-03T03:49:20.803Z,75.23
2023-03-03T03:51:50.786Z,79.10
2023-03-03T03:54:19.257Z,83.90
2023-03-03T03:56:47.686Z,85.00
2023-03-03T03:59:16.150Z,85.47
2023-03-03T04:01:44.553Z,90.60
2023-03-03T04:04:13.107Z,89.30
2023-03-03T04:06:41.618Z,85.13
2023-03-03T04:09:11.423Z,77.83
2023-03-03T04:11:39.852Z,72.47
2023-03-03T04:14:08.322Z,71.03
2023-03-03T04:16:36.741Z,72.83
2023-03-03T04:19:05.483Z,74.27
2023-03-03T04:21:33.902Z,76.87
2023-03-03T04:24:02.342Z,83.27
2023-03-03T04:26:32.174Z,78.07
2023-03-03T04:29:01.720Z,77.03
2023-03-03T04:31:30.119Z,75.83
2023-03-03T04:33:58.587Z,80.30
2023-03-03T04:36:27.041Z,75.77
2023-03-03T04:38:55.465Z,73.60
2023-03-03T04:41:23.941Z,70.47
2023-03-03T04:43:53.747Z,71.00
2023-03-03T04:46:22.241Z,72.80
2023-03-03T04:48:50.731Z,69.37
2023-03-03T04:51:19.173Z,67.03
2023-03-03T04:53:49.636Z,71.77
2023-03-03T04:56:18.078Z,65.10
2023-03-03T04:58:46.497Z,73.80
2023-03-03T05:01:16.592Z,72.93
2023-03-03T05:03:45.047Z,66.57
2023-03-03T05:06:13.514Z,68.93
2023-03-03T05:08:43.216Z,74.70
2023-03-03T05:11:11.664Z,76.50
2023-03-03T05:13:40.227Z,75.23
2023-03-03T05:16:09.081Z,71.00
2023-03-03T05:18:39.129Z,76.50
2023-03-03T05:21:07.844Z,70.23
2023-03-03T05:23:36.246Z,73.97
2023-03-03T05:26:04.793Z,72.43
2023-03-03T05:28:33.194Z,71.53
2023-03-03T05:31:01.944Z,73.47
2023-03-03T05:33:30.431Z,75.87
2023-03-03T05:36:00.465Z,75.90
2023-03-03T05:38:28.940Z,76.27
2023-03-03T05:40:57.491Z,80.30
2023-03-03T05:43:26.177Z,74.33
2023-03-03T05:45:57.580Z,78.00
2023-03-03T05:48:26.084Z,86.63
2023-03-03T05:50:54.585Z,74.40
2023-03-03T05:53:24.366Z,73.70
2023-03-03T05:55:52.810Z,83.03
2023-03-03T05:58:21.279Z,81.83
2023-03-03T06:00:49.853Z,82.87
2023-03-03T06:03:18.362Z,76.83
2023-03-03T06:05:46.909Z,71.50
2023-03-03T06:08:15.335Z,74.77
2023-03-03T06:10:45.150Z,73.50
2023-03-03T06:13:13.606Z,78.10
2023-03-03T06:15:42.106Z,74.77
2023-03-03T06:18:10.675Z,78.47
2023-03-03T06:20:39.732Z,87.13
2023-03-03T06:23:08.315Z,78.70
2023-03-03T06:25:37.454Z,79.20
2023-03-03T06:28:07.255Z,77.80
2023-03-03T06:30:35.703Z,76.33
2023-03-03T06:33:04.205Z,71.37
2023-03-03T06:35:32.671Z,72.90
2023-03-03T06:38:01.169Z,80.63
2023-03-03T06:40:29.595Z,85.03
2023-03-03T06:42:58.057Z,84.17
2023-03-03T06:45:27.921Z,71.50
2023-03-03T06:47:56.480Z,70.53
2023-03-03T06:50:24.853Z,67.00
2023-03-03T06:53:00.975Z,70.77
2023-03-03T06:55:29.457Z,61.40
2023-03-03T06:57:57.992Z,69.00
2023-03-03T07:00:31.096Z,69.90
2023-03-03T07:03:01.210Z,67.00
2023-03-03T07:05:30.113Z,67.67
2023-03-03T07:07:58.736Z,66.30
2023-03-03T07:10:27.989Z,69.30
2023-03-03T07:12:56.909Z,77.63
2023-03-03T07:15:26.520Z,69.13
2023-03-03T07:17:59.763Z,65.90
2023-03-03T07:20:31.930Z,74.87
2023-03-03T07:23:00.496Z,83.13
2023-03-03T07:25:32.138Z,71.53
2023-03-03T07:28:02.988Z,75.53
2023-03-03T07:30:31.657Z,77.83
2023-03-03T07:33:01.534Z,71.90
2023-03-03T07:35:40.377Z,71.97
2023-03-03T07:38:31.416Z,71.93
2023-03-03T07:41:01.266Z,74.57
2023-03-03T07:43:35.713Z,78.17
2023-03-03T07:46:08.301Z,82.50
2023-03-03T07:48:38.866Z,84.03
2023-03-03T07:51:13.502Z,82.57
2023-03-03T07:53:41.942Z,80.03
2023-03-03T07:56:17.353Z,79.27
2023-03-03T07:58:45.824Z,87.40
2023-03-03T08:01:29.272Z,93.33
2023-03-03T08:03:59.378Z,87.60
2023-03-03T08:06:40.252Z,85.23
2023-03-03T08:09:26.880Z,84.33
2023-03-03T08:11:56.922Z,79.83
2023-03-03T08:14:27.960Z,73.73
2023-03-03T08:17:00.411Z,75.07
2023-03-03T08:19:32.319Z,71.63
2023-03-03T08:22:05.887Z,74.57
2023-03-03T08:24:36.323Z,67.50
2023-03-03T08:27:06.035Z,66.33
2023-03-03T08:29:34.492Z,69.93
2023-03-03T08:32:03.036Z,78.10
2023-03-03T08:34:32.922Z,71.93
2023-03-03T08:37:01.411Z,65.73
2023-03-03T08:39:29.941Z,68.77
2023-03-03T08:41:58.391Z,65.80
2023-03-03T08:44:26.968Z,72.23
2023-03-03T08:46:55.803Z,63.20
2023-03-03T08:49:24.473Z,63.77
2023-03-03T08:51:54.718Z,61.87
2023-03-03T08:54:23.274Z,69.87
2023-03-03T08:56:51.893Z,68.80
2023-03-03T08:59:20.608Z,69.23
2023-03-03T09:01:49.174Z,62.57
2023-03-03T09:04:17.686Z,57.37
2023-03-03T09:06:46.249Z,63.00
2023-03-03T09:09:16.228Z,67.87
2023-03-03T09:11:44.660Z,64.20
2023-03-03T09:14:14.094Z,67.23
2023-03-03T09:16:43.779Z,67.97
2023-03-03T09:19:20.497Z,66.83
2023-03-03T09:21:48.961Z,69.67
2023-03-03T09:24:24.162Z,67.33
2023-03-03T09:26:53.404Z,67.17
2023-03-03T09:29:26.220Z,61.57
2023-03-03T09:31:55.593Z,60.10
2023-03-03T09:34:25.979Z,64.77
2023-03-03T09:36:55.152Z,62.03
2023-03-03T09:39:25.991Z,63.73
2023-03-03T09:42:03.727Z,59.67
2023-03-03T09:44:48.556Z,56.07
2023-03-03T09:47:26.282Z,53.47
2023-03-03T09:49:59.678Z,61.07
2023-03-03T09:52:35.417Z,53.40
2023-03-03T09:55:12.926Z,57.20
2023-03-03T09:58:04.473Z,55.67
2023-03-03T10:00:44.316Z,56.77
2023-03-03T10:03:23.383Z,55.93
2023-03-03T10:05:55.018Z,48.93
2023-03-03T10:08:31.749Z,56.13
2023-03-03T10:11:05.798Z,48.53
2023-03-03T10:13:41.252Z,54.10
2023-03-03T10:16:19.801Z,45.33
2023-03-03T10:18:53.035Z,51.90
2023-03-03T10:21:26.307Z,52.57
2023-03-03T10:23:59.033Z,48.03
2023-03-03T10:26:44.879Z,55.57
2023-03-03T10:29:23.324Z,51.40
2023-03-03T10:31:57.374Z,54.57
2023-03-03T10:34:41.363Z,57.37
2023-03-03T10:37:11.140Z,60.03
2023-03-03T10:39:49.000Z,59.63
2023-03-03T10:42:29.183Z,61.57
2023-03-03T10:45:12.942Z,63.27
2023-03-03T10:47:51.628Z,65.23
2023-03-03T10:50:23.701Z,53.17
2023-03-03T10:52:54.426Z,57.07
2023-03-03T10:55:33.204Z,51.33
2023-03-03T10:58:09.406Z,44.90
2023-03-03T11:00:41.907Z,49.03
2023-03-03T11:03:28.758Z,42.47
2023-03-03T11:06:02.668Z,43.53
2023-03-03T11:08:34.076Z,43.50
2023-03-03T11:11:06.796Z,48.77
2023-03-03T11:13:41.148Z,45.10
2023-03-03T11:16:19.164Z,43.47
2023-03-03T11:18:54.448Z,44.07
2023-03-03T11:21:26.055Z,44.17
2023-03-03T11:24:00.008Z,51.10
2023-03-03T11:26:35.182Z,44.93
2023-03-03T11:29:21.389Z,48.67
2023-03-03T11:31:55.730Z,48.23
2023-03-03T11:34:37.514Z,48.87
2023-03-03T11:37:09.247Z,50.93
2023-03-03T11:39:38.794Z,48.87
2023-03-03T11:42:11.921Z,53.03
2023-03-03T11:44:41.764Z,46.70
2023-03-03T11:47:18.848Z,52.53
2023-03-03T11:49:51.172Z,45.43
2023-03-03T11:52:24.548Z,46.63
2023-03-03T11:54:55.451Z,51.50
2023-03-03T11:57:29.453Z,51.03
2023-03-03T12:00:06.419Z,51.37
2023-03-03T12:03:01.905Z,48.03
2023-03-03T12:05:40.886Z,47.97
2023-03-03T12:08:15.984Z,47.57
2023-03-03T12:10:47.635Z,48.70
2023-03-03T12:13:22.266Z,54.67
2023-03-03T12:15:51.900Z,50.57
2023-03-03T12:18:33.270Z,49.07
2023-03-03T12:21:19.504Z,49.20
2023-03-03T12:23:57.924Z,47.77
2023-03-03T12:26:29.980Z,53.03
2023-03-03T12:29:00.823Z,53.80
2023-03-03T12:31:37.139Z,51.70
2023-03-03T12:34:07.435Z,53.53
2023-03-03T12:36:44.570Z,52.90
2023-03-03T12:39:28.882Z,55.87
2023-03-03T12:42:06.547Z,50.50
2023-03-03T12:44:39.113Z,53.80
2023-03-03T12:47:11.851Z,53.75
2023-03-03T12:49:48.065Z,48.25
2023-03-03T12:52:29.037Z,44.53
2023-03-03T12:55:03.935Z,54.30
2023-03-03T12:57:36.718Z,48.70
2023-03-03T13:00:20.169Z,41.70
2023-03-03T13:02:56.443Z,44.30
2023-03-03T13:05:27.338Z,45.45
2023-03-03T13:08:06.489Z,43.95
2023-03-03T13:10:37.939Z,44.42
2023-03-03T13:13:10.682Z,44.25
2023-03-03T13:15:51.845Z,42.70
2023-03-03T13:18:30.720Z,42.05
2023-03-03T13:21:01.923Z,42.55
2023-03-03T13:23:39.219Z,44.72
2023-03-03T13:26:10.275Z,39.45
2023-03-03T13:28:40.915Z,40.60
2023-03-03T13:31:14.086Z,42.78
2023-03-03T13:33:49.043Z,40.05
2023-03-03T13:36:18.701Z,39.10
2023-03-03T13:38:51.417Z,37.38
2023-03-03T13:41:24.223Z,36.22
2023-03-03T13:43:55.878Z,34.40
2023-03-03T13:46:30.394Z,33.95
2023-03-03T13:49:25.603Z,34.17
2023-03-03T13:51:59.988Z,37.75
2023-03-03T13:54:38.251Z,31.58
2023-03-03T13:57:14.212Z,34.13
2023-03-03T13:59:47.352Z,30.20
2023-03-03T14:02:28.775Z,30.67
2023-03-03T14:05:02.356Z,30.38
2023-03-03T14:07:33.460Z,32.42
2023-03-03T14:10:09.430Z,27.02
2023-03-03T14:12:42.876Z,29.45
2023-03-03T14:15:17.748Z,29.70
2023-03-03T14:17:49.425Z,32.85
2023-03-03T14:20:21.014Z,30.73
2023-03-03T14:22:53.013Z,31.73
2023-03-03T14:25:22.982Z,31.10
2023-03-03T14:28:02.279Z,28.05
2023-03-03T14:30:32.756Z,27.90
2023-03-03T14:33:03.032Z,30.60
2023-03-03T14:35:32.681Z,32.28
2023-03-03T14:38:04.946Z,29.33
2023-03-03T14:40:35.872Z,31.40
2023-03-03T14:43:08.028Z,30.42
2023-03-03T14:45:37.425Z,29.65
2023-03-03T14:48:13.433Z,31.13
2023-03-03T14:50:50.742Z,27.55
2023-03-03T14:53:23.231Z,26.10
2023-03-03T14:55:54.010Z,28.42
2023-03-03T14:58:30.788Z,24.48
2023-03-03T15:01:16.647Z,26.40
2023-03-03T15:03:52.592Z,24.60
2023-03-03T15:06:37.703Z,23.52
2023-03-03T15:09:24.949Z,23.38
2023-03-03T15:11:55.726Z,25.77
2023-03-03T15:14:28.318Z,23.88
2023-03-03T15:16:58.753Z,24.13
2023-03-03T15:19:51.413Z,21.25
2023-03-03T15:22:24.350Z,23.25
2023-03-03T15:24:58.449Z,23.15
2023-03-03T15:27:30.739Z,23.80
2023-03-03T15:30:06.857Z,23.98
2023-03-03T15:32:37.861Z,18.77
2023-03-03T15:35:12.346Z,21.20
2023-03-03T15:37:43.607Z,22.80
2023-03-03T15:40:18.765Z,20.58
2023-03-03T15:42:50.817Z,21.17
2023-03-03T15:45:22.335Z,20.80
2023-03-03T15:47:59.715Z,20.85
2023-03-03T15:50:37.873Z,19.60
2023-03-03T15:53:11.246Z,19.05
2023-03-03T15:55:58.116Z,20.42
2023-03-03T15:58:42.565Z,16.90
2023-03-03T16:01:13.566Z,19.40
2023-03-03T16:03:46.541Z,18.92
2023-03-03T16:06:18.210Z,20.75
2023-03-03T16:08:51.298Z,18.63
2023-03-03T16:11:23.508Z,19.50
2023-03-03T16:14:02.287Z,18.65
2023-03-03T16:16:35.053Z,17.88
2023-03-03T16:19:12.373Z,21.48
2023-03-03T16:21:49.852Z,19.85
2023-03-03T16:24:23.170Z,19.48
2023-03-03T16:26:56.191Z,18.42
2023-03-03T16:29:35.372Z,17.88
2023-03-03T16:32:07.001Z,18.98
2023-03-03T16:34:38.705Z,20.08
2023-03-03T16:37:13.579Z,19.27
2023-03-03T16:39:48.426Z,20.60
2023-03-03T16:42:22.142Z,20.02
2023-03-03T16:44:57.226Z,21.92
2023-03-03T16:47:31.533Z,19.98
2023-03-03T16:50:05.100Z,25.23
2023-03-03T16:52:35.858Z,22.23
2023-03-03T16:55:07.178Z,19.88
2023-03-03T16:57:41.207Z,18.13
2023-03-03T17:00:13.981Z,25.60
2023-03-03T17:02:57.332Z,20.45
2023-03-03T17:05:29.708Z,20.83
2023-03-03T17:08:08.659Z,22.35
2023-03-03T17:10:40.184Z,19.33
2023-03-03T17:13:19.814Z,22.67
2023-03-03T17:15:55.229Z,20.42
2023-03-03T17:18:29.926Z,23.85
2023-03-03T17:21:00.124Z,19.30
2023-03-03T17:23:37.207Z,20.55
2023-03-03T17:26:11.948Z,18.95
2023-03-03T17:28:46.265Z,21.25
2023-03-03T17:31:21.870Z,18.23
2023-03-03T17:34:03.414Z,18.13
2023-03-03T17:36:38.272Z,22.70
2023-03-03T17:39:14.830Z,21.25
2023-03-03T17:41:46.425Z,20.05
2023-03-03T17:44:19.378Z,18.05
2023-03-03T17:46:51.577Z,19.73
2023-03-03T17:49:30.633Z,21.45
2023-03-03T17:52:09.147Z,25.42
2023-03-03T17:54:44.858Z,20.90
2023-03-03T17:57:20.637Z,20.20
2023-03-03T17:59:59.524Z,19.58
2023-03-03T18:02:39.142Z,18.15
2023-03-03T18:05:26.207Z,21.50
2023-03-03T18:07:59.461Z,19.92
2023-03-03T18:10:43.079Z,19.65
2023-03-03T18:13:22.415Z,19.50
2023-03-03T18:16:11.192Z,24.13
2023-03-03T18:18:54.368Z,22.10
2023-03-03T18:21:24.398Z,23.70
2023-03-03T18:23:53.087Z,24.13
2023-03-03T18:26:32.847Z,23.33
2023-03-03T18:29:09.385Z,25.97
2023-03-03T18:31:47.361Z,22.67
2023-03-03T18:34:32.854Z,29.57
2023-03-03T18:37:02.141Z,24.53
2023-03-03T18:39:43.334Z,28.37
2023-03-03T18:42:13.882Z,26.75
2023-03-03T18:44:42.736Z,23.83
2023-03-03T18:47:11.877Z,27.20
2023-03-03T18:49:59.553Z,29.15
2023-03-03T18:52:30.774Z,24.50
2023-03-03T18:55:26.074Z,25.85
2023-03-03T18:58:18.662Z,24.25
2023-03-03T19:00:47.930Z,28.27
2023-03-03T19:03:26.117Z,24.67
2023-03-03T19:05:57.921Z,30.42
2023-03-03T19:08:28.762Z,33.20
2023-03-03T19:10:58.610Z,32.00
2023-03-03T19:13:49.202Z,26.10
2023-03-03T19:16:36.795Z,29.90
2023-03-03T19:19:12.138Z,28.25
2023-03-03T19:21:41.600Z,28.80
2023-03-03T19:24:28.219Z,28.83
2023-03-03T19:27:02.526Z,27.77
2023-03-03T19:29:55.322Z,33.63
2023-03-03T19:32:29.978Z,28.20
2023-03-03T19:35:05.196Z,29.40
2023-03-03T19:37:41.306Z,30.33
2023-03-03T19:40:19.446Z,27.93
2023-03-03T19:42:50.993Z,28.33
2023-03-03T19:45:27.297Z,27.77
2023-03-03T19:48:00.017Z,31.05
2023-03-03T19:50:35.171Z,29.30
2023-03-03T19:53:06.927Z,29.43
2023-03-03T19:55:44.043Z,32.80
2023-03-03T19:58:18.427Z,32.45
2023-03-03T20:00:48.812Z,33.43
2023-03-03T20:03:30.807Z,31.20
2023-03-03T20:06:04.483Z,31.70
2023-03-03T20:08:35.459Z,28.17
2023-03-03T20:11:09.006Z,30.67
2023-03-03T20:13:47.331Z,29.80
2023-03-03T20:16:19.926Z,30.87
2023-03-03T20:18:58.922Z,27.80
2023-03-03T20:21:33.431Z,34.70
2023-03-03T20:24:21.293Z,34.27
2023-03-03T20:26:57.787Z,34.30
2023-03-03T20:29:35.815Z,34.27
2023-03-03T20:32:08.341Z,33.20
2023-03-03T20:34:40.974Z,32.17
2023-03-03T20:37:12.158Z,34.47
2023-03-03T20:39:45.447Z,30.80
2023-03-03T20:42:22.416Z,35.03
2023-03-03T20:45:00.197Z,32.83
2023-03-03T20:47:33.122Z,35.27
2023-03-03T20:50:08.330Z,35.30
2023-03-03T20:52:41.888Z,36.93
2023-03-03T20:55:15.227Z,35.37
2023-03-03T20:57:48.671Z,33.47
2023-03-03T21:00:21.106Z,41.33
2023-03-03T21:02:52.726Z,34.80
2023-03-03T21:05:22.489Z,36.33
2023-03-03T21:07:55.231Z,36.20
2023-03-03T21:10:25.165Z,35.47
2023-03-03T21:12:56.248Z,34.67
2023-03-03T21:15:29.204Z,34.87
2023-03-03T21:17:58.259Z,24.40
2023-03-03T21:20:28.581Z,22.40
2023-03-03T21:22:57.129Z,16.27
2023-03-03T21:25:45.039Z,13.90
2023-03-03T21:28:19.737Z,13.03
2023-03-03T21:31:01.147Z,10.67
2023-03-03T21:33:46.708Z,9.30
2023-03-03T21:36:15.930Z,9.37
2023-03-03T21:38:45.450Z,9.80
2023-03-03T21:41:14.891Z,10.97
2023-03-03T21:43:45.575Z,12.53
2023-03-03T21:46:14.199Z,10.63
2023-03-03T21:48:43.397Z,13.10
2023-03-03T21:51:13.976Z,13.53
2023-03-03T21:53:44.092Z,15.13
2023-03-03T21:56:13.881Z,14.40
2023-03-03T21:58:42.378Z,10.53
2023-03-03T22:01:12.274Z,13.60
2023-03-03T22:03:40.763Z,11.97
2023-03-03T22:06:09.455Z,15.20
2023-03-03T22:08:38.154Z,13.43
2023-03-03T22:11:06.798Z,12.33
2023-03-03T22:13:35.303Z,12.87
2023-03-03T22:16:03.746Z,12.97
2023-03-03T22:18:33.607Z,14.30
2023-03-03T22:21:02.201Z,13.03
2023-03-03T22:23:30.687Z,11.80
2023-03-03T22:25:59.714Z,9.33
2023-03-03T22:28:29.197Z,12.63
2023-03-03T22:30:58.025Z,10.33
2023-03-03T22:33:26.592Z,10.30
2023-03-03T22:35:56.458Z,8.23
2023-03-03T22:38:25.228Z,9.80
2023-03-03T22:40:54.412Z,8.47
2023-03-03T22:43:23.003Z,13.53
2023-03-03T22:45:51.886Z,11.27
2023-03-03T22:48:20.361Z,10.57
2023-03-03T22:50:48.783Z,10.70
2023-03-03T22:53:18.595Z,13.13
2023-03-03T22:55:47.255Z,9.47
2023-03-03T22:58:15.935Z,12.17
2023-03-03T23:00:44.350Z,13.05
2023-03-03T23:03:13.432Z,11.90
2023-03-03T23:05:41.937Z,13.38
2023-03-03T23:08:11.464Z,15.20
2023-03-03T23:10:41.982Z,13.13
2023-03-03T23:13:10.573Z,10.45
2023-03-03T23:15:38.989Z,14.97
2023-03-03T23:18:07.546Z,12.63
2023-03-03T23:20:36.363Z,11.75
2023-03-03T23:23:04.800Z,13.50
2023-03-03T23:25:34.349Z,13.80
2023-03-03T23:28:04.271Z,11.13
2023-03-03T23:30:32.816Z,13.70
2023-03-03T23:33:01.242Z,16.13
2023-03-03T23:35:29.790Z,14.45
2023-03-03T23:37:58.222Z,13.35
2023-03-03T23:40:26.732Z,11.90
2023-03-03T23:42:55.184Z,12.60
2023-03-03T23:45:25.028Z,11.07
2023-03-03T23:47:53.506Z,10.32
2023-03-03T23:50:22.059Z,14.55
2023-03-03T23:52:50.502Z,13.10
2023-03-03T23:55:20.088Z,16.83
2023-03-03T23:57:48.521Z,16.92
